Valor — WDD8691 — position and weather

sailwx.info

Track history (hours):
 
Tides and Currents Weather Stations Pressure Air Temp Water Temp Dewpoint Dewpoint Depression Visibility Wind Speed Wind Dir Waves Ship Positions

Valor

Owner: Crowley Marine Services, Inc., Seattle, WA. More information available from US FCC via Universal Licensing System and Coast Guard Vessel Documentation Center.

Last reported at 2015-Apr-19 07:33 UTC. Time now 2015-Apr-19 07:52 UTC.
Position N 38°04' W 122°13'.

Length 8 m; draft 5.5 m.

Type: Tug. MMSI: 367301480.

Date/timePositionNaut miles runAvg speedWind from/ knotsBaromVisibWave heightAir tempDewpointWater temp
2015-Apr-19 07:33N 38°04' W 122°13'2 2.3
2015-Apr-19 06:34N 38°03' W 122°10'2 1.6
2015-Apr-19 05:33N 38°02' W 122°09'1 0.7
2015-Apr-19 04:34N 38°03' W 122°08'1 0.1
2015-Apr-18 07:33N 38°02' W 122°09'1 0.1
2015-Apr-17 18:07N 38°02' W 122°08'2 3.0
2015-Apr-17 17:34N 38°03' W 122°06'1 1.3
2015-Apr-17 16:33N 38°02' W 122°08'6 5.8
2015-Apr-17 15:33N 38°03' W 122°15'0 0.0
2015-Apr-17 14:33N 38°03' W 122°15'0 0.0
2015-Apr-17 13:33N 38°03' W 122°15'0 0.0
2015-Apr-17 12:33N 38°03' W 122°15'0 0.0
2015-Apr-17 11:33N 38°03' W 122°15'0 0.0
2015-Apr-17 10:33N 38°03' W 122°15'0 0.0
2015-Apr-17 09:33N 38°03' W 122°15'0 0.0
2015-Apr-17 08:33N 38°03' W 122°15'0 0.0
2015-Apr-17 07:33N 38°03' W 122°15'0 0.0
2015-Apr-17 06:33N 38°03' W 122°15'0 0.0
2015-Apr-17 05:33N 38°03' W 122°15'0 0.0
2015-Apr-17 04:33N 38°03' W 122°15'0 0.0
2015-Apr-17 03:33N 38°03' W 122°15'8 7.4
2015-Apr-17 02:32N 38°01' W 122°24'9 8.9
2015-Apr-17 01:33N 37°52' W 122°24'7 7.0
2015-Apr-17 00:33N 37°48' W 122°17'2 1.7
2015-Apr-16 23:33N 37°48' W 122°19'2 1.5
2015-Apr-16 22:33N 37°49' W 122°19'0 0.0
2015-Apr-16 21:33N 37°49' W 122°19'0 0.0
2015-Apr-16 20:33N 37°49' W 122°19'0 0.0
2015-Apr-16 19:33N 37°49' W 122°19'0 0.0
2015-Apr-16 18:34N 37°49' W 122°19'2 2.4
2015-Apr-16 17:33N 37°49' W 122°22'2 2.4
2015-Apr-16 16:33N 37°49' W 122°19'0 0.0
2015-Apr-16 15:33N 37°49' W 122°19'0 0.0
2015-Apr-16 14:33N 37°49' W 122°19'0 0.0
2015-Apr-16 13:33N 37°49' W 122°19'5 4.6
2015-Apr-16 12:33N 37°45' W 122°21'6 6.1
2015-Apr-16 11:33N 37°49' W 122°27'3 3.0
2015-Apr-16 10:33N 37°49' W 122°31'1 0.9
2015-Apr-16 09:33N 37°49' W 122°30'9 8.6
2015-Apr-16 08:33N 37°49' W 122°19'0 0.2
2015-Apr-16 07:33N 37°49' W 122°19'0 0.0
2015-Apr-16 06:33N 37°49' W 122°19'0 0.0
2015-Apr-16 05:34N 37°49' W 122°19'0 0.0
2015-Apr-16 04:33N 37°49' W 122°19'1 1.5
2015-Apr-16 03:33N 37°49' W 122°20'8 7.8
2015-Apr-16 02:33N 37°55' W 122°25'0 0.1
2015-Apr-16 01:33N 37°55' W 122°25'0 0.2
2015-Apr-16 00:33N 37°55' W 122°25'5 5.3
2015-Apr-15 23:33N 37°51' W 122°23'3 3.3
2015-Apr-15 22:33N 37°49' W 122°19'0 0.0
2015-Apr-15 21:34N 37°49' W 122°19'0 0.0
2015-Apr-15 20:33N 37°49' W 122°19'0 0.0
2015-Apr-15 19:33N 37°49' W 122°19'0 0.0
2015-Apr-15 18:33N 37°49' W 122°19'0 0.0
2015-Apr-15 17:33N 37°49' W 122°19'1 0.6
2015-Apr-15 16:33N 37°49' W 122°19'0 0.1
2015-Apr-15 15:33N 37°49' W 122°19'0 0.3
2015-Apr-15 14:33N 37°49' W 122°20'0 0.1
2015-Apr-15 13:33N 37°49' W 122°20'3 3.5
2015-Apr-15 12:34N 37°48' W 122°24'0 0.0
2015-Apr-15 11:33N 37°48' W 122°24'0 0.0
2015-Apr-15 10:33N 37°48' W 122°24'3 3.0
2015-Apr-15 09:34N 37°51' W 122°25'4 4.4
2015-Apr-15 08:33N 37°56' W 122°25'0 0.1
2015-Apr-15 07:33N 37°56' W 122°25'3 3.1
2015-Apr-15 06:33N 37°53' W 122°25'4 4.1
2015-Apr-15 05:33N 37°57' W 122°26'8 8.2
2015-Apr-15 04:32N 38°03' W 122°19'2 2.5
2015-Apr-15 03:33N 38°03' W 122°16'7 7.0
2015-Apr-15 02:31N 38°00' W 122°24'1010.4
2015-Apr-15 01:33N 37°50' W 122°26'4 4.4
2015-Apr-15 00:33N 37°49' W 122°31'6 6.0
2015-Apr-14 23:33N 37°49' W 122°23'4 3.5
2015-Apr-14 22:34N 37°46' W 122°21'4 3.6
2015-Apr-14 21:34N 37°49' W 122°19'0 0.0
2015-Apr-14 20:33N 37°49' W 122°19'0 0.0
2015-Apr-14 19:33N 37°49' W 122°19'0 0.0
2015-Apr-14 18:33N 37°49' W 122°19'0 0.0
2015-Apr-14 17:33N 37°49' W 122°19'0 0.0
2015-Apr-14 16:33N 37°49' W 122°19'0 0.0
2015-Apr-14 15:33N 37°49' W 122°19'4 4.1
2015-Apr-14 14:33N 37°51' W 122°23'5 4.6
2015-Apr-14 13:33N 37°55' W 122°25'2 2.4
2015-Apr-14 12:33N 37°55' W 122°22'0 0.5
2015-Apr-14 11:34N 37°54' W 122°22'3 2.7
2015-Apr-14 10:33N 37°55' W 122°25'0 0.2
2015-Apr-14 09:33N 37°55' W 122°25'8 7.7
2015-Apr-14 08:34N 37°49' W 122°20'0 0.3
2015-Apr-14 07:33N 37°49' W 122°20'0 0.0
2015-Apr-14 06:33N 37°49' W 122°20'3 2.9
2015-Apr-14 05:33N 37°46' W 122°21'4 4.1
2015-Apr-14 04:33N 37°49' W 122°25'4 4.4
2015-Apr-14 03:33N 37°49' W 122°30'8 8.1
2015-Apr-14 02:33N 37°49' W 122°20'1 1.2
2015-Apr-14 01:33N 37°49' W 122°19'0 0.0
2015-Apr-14 00:33N 37°49' W 122°19'0 0.0
2015-Apr-13 23:33N 37°49' W 122°19'0 0.0
2015-Apr-13 22:33N 37°49' W 122°19'0 0.0
2015-Apr-13 21:33N 37°49' W 122°19'0 0.0
2015-Apr-13 20:33N 37°49' W 122°19'0 0.0
2015-Apr-13 19:33N 37°49' W 122°19'0 0.0
2015-Apr-13 18:33N 37°49' W 122°19'0 0.0
2015-Apr-13 17:33N 37°49' W 122°19'0 0.0
2015-Apr-13 16:33N 37°49' W 122°19'0 0.0
2015-Apr-13 15:33N 37°49' W 122°19'0 0.0
2015-Apr-13 14:33N 37°49' W 122°19'0 0.0
2015-Apr-13 13:33N 37°49' W 122°19'0 0.0
2015-Apr-13 12:33N 37°49' W 122°19'0 0.0
2015-Apr-13 11:33N 37°49' W 122°19'0 0.0
2015-Apr-13 10:33N 37°49' W 122°19'0 0.0
2015-Apr-13 09:33N 37°49' W 122°19'0 0.0
2015-Apr-13 08:33N 37°49' W 122°19'0 0.0
2015-Apr-13 07:32N 37°49' W 122°19'0 0.0
2015-Apr-13 06:33N 37°49' W 122°19'0 0.0
2015-Apr-13 05:33N 37°49' W 122°19'0 0.0
2015-Apr-13 04:33N 37°49' W 122°19'4 3.9
2015-Apr-13 03:33N 37°49' W 122°24'6 5.9
2015-Apr-13 02:33N 37°49' W 122°31'6 6.2
2015-Apr-13 01:34N 37°53' W 122°26'9 8.6
2015-Apr-13 00:34N 38°02' W 122°23'7 6.7
2015-Apr-12 23:33N 38°04' W 122°15'0 0.1
2015-Apr-12 21:27N 38°03' W 122°15'0 0.0
2015-Apr-12 17:33N 38°03' W 122°15'0 0.0
2015-Apr-12 16:33N 38°03' W 122°15'5 0.3
2015-Apr-12 00:18N 38°02' W 122°09'5 0.7
2015-Apr-11 17:24N 38°03' W 122°15'0 0.0
2015-Apr-11 16:17N 38°03' W 122°15'0 0.2
2015-Apr-11 15:33N 38°04' W 122°15'7 5.8
2015-Apr-11 14:24N 38°02' W 122°23'8 9.0
2015-Apr-11 13:33N 37°55' W 122°27'9 9.1
2015-Apr-11 12:33N 37°47' W 122°21'3 3.1
2015-Apr-11 11:33N 37°49' W 122°19'0 0.0
2015-Apr-11 10:33N 37°49' W 122°19'0 0.0
2015-Apr-11 09:33N 37°49' W 122°19'0 0.0
2015-Apr-11 08:33N 37°49' W 122°19'0 0.0
2015-Apr-11 07:33N 37°49' W 122°19'0 0.0
2015-Apr-11 06:33N 37°49' W 122°19'0 0.0
2015-Apr-11 05:33N 37°49' W 122°19'0 0.0
2015-Apr-11 04:33N 37°49' W 122°19'0 0.0
2015-Apr-11 03:33N 37°49' W 122°19'0 0.0
2015-Apr-11 02:33N 37°49' W 122°19'0 0.0
2015-Apr-11 01:33N 37°49' W 122°19'0 0.1
2015-Apr-11 00:34N 37°49' W 122°19'0 0.3
2015-Apr-10 23:33N 37°49' W 122°19'8 7.9
2015-Apr-10 22:33N 37°55' W 122°25'0 0.5
2015-Apr-10 21:33N 37°55' W 122°25'8 7.7
2015-Apr-10 20:33N 37°49' W 122°19'1 0.6
2015-Apr-10 19:33N 37°49' W 122°19'0 0.0
2015-Apr-10 18:33N 37°49' W 122°19'0 0.0
2015-Apr-10 17:33N 37°49' W 122°19'0 0.0
2015-Apr-10 16:33N 37°49' W 122°19'0 0.0
2015-Apr-10 15:33N 37°49' W 122°19'1 0.6
2015-Apr-10 14:33N 37°49' W 122°19'8 7.8
2015-Apr-10 13:33N 37°55' W 122°25'0 0.2
2015-Apr-10 12:33N 37°55' W 122°25'1 0.6
2015-Apr-10 11:33N 37°56' W 122°25'0 0.0
2015-Apr-10 10:33N 37°56' W 122°25'0 0.0
2015-Apr-10 09:33N 37°56' W 122°25'0 0.0
2015-Apr-10 08:33N 37°56' W 122°25'3 2.5
2015-Apr-10 07:33N 37°58' W 122°26'9 9.5
2015-Apr-10 06:33N 38°03' W 122°16'7 6.6
2015-Apr-10 05:33N 38°02' W 122°08'0 0.2
2015-Apr-10 04:32N 38°02' W 122°08'8 7.7
2015-Apr-10 03:32N 38°03' W 122°18'9 9.3
2015-Apr-10 02:33N 37°58' W 122°27'9 9.5
2015-Apr-10 01:33N 37°49' W 122°23'3 2.6
2015-Apr-10 00:33N 37°47' W 122°21'3 3.0
2015-Apr-09 23:33N 37°49' W 122°19'0 0.0
2015-Apr-09 22:33N 37°49' W 122°19'0 0.0
2015-Apr-09 21:33N 37°49' W 122°19'0 0.0
2015-Apr-09 20:33N 37°49' W 122°19'0 0.0
2015-Apr-09 19:33N 37°49' W 122°19'0 0.0
2015-Apr-09 18:33N 37°49' W 122°19'0 0.0
2015-Apr-09 17:33N 37°49' W 122°19'2 2.2
2015-Apr-09 16:33N 37°49' W 122°21'2 2.2
2015-Apr-09 15:33N 37°49' W 122°19'0 0.0
2015-Apr-09 14:33N 37°49' W 122°19'0 0.0
2015-Apr-09 13:33N 37°49' W 122°19'0 0.0
2015-Apr-09 12:33N 37°49' W 122°19'0 0.0
2015-Apr-09 11:33N 37°49' W 122°19'0 0.0
2015-Apr-09 10:33N 37°49' W 122°19'0 0.0
2015-Apr-09 09:34N 37°49' W 122°19'2 1.6
2015-Apr-09 08:33N 37°48' W 122°18'  
Track history (hours):
 
Tides and Currents Weather Stations Pressure Air Temp Water Temp Dewpoint Dewpoint Depression Visibility Wind Speed Wind Dir Waves Ship Positions

Valor

Owner: Crowley Marine Services, Inc., Seattle, WA. More information available from US FCC via Universal Licensing System and Coast Guard Vessel Documentation Center.

Last reported at 2015-Apr-19 07:33 UTC. Time now 2015-Apr-19 07:52 UTC.
Position N 38°04' W 122°13'.

Length 8 m; draft 5.5 m.

Type: Tug. MMSI: 367301480.

Date/timePositionNaut miles runAvg speedWind from/ knotsBaromVisibWave heightAir tempDewpointWater temp
2015-Apr-19 07:33N 38°04' W 122°13'2 2.3
2015-Apr-19 06:34N 38°03' W 122°10'2 1.6
2015-Apr-19 05:33N 38°02' W 122°09'1 0.7
2015-Apr-19 04:34N 38°03' W 122°08'1 0.1
2015-Apr-18 07:33N 38°02' W 122°09'1 0.1
2015-Apr-17 18:07N 38°02' W 122°08'2 3.0
2015-Apr-17 17:34N 38°03' W 122°06'1 1.3
2015-Apr-17 16:33N 38°02' W 122°08'6 5.8
2015-Apr-17 15:33N 38°03' W 122°15'0 0.0
2015-Apr-17 14:33N 38°03' W 122°15'0 0.0
2015-Apr-17 13:33N 38°03' W 122°15'0 0.0
2015-Apr-17 12:33N 38°03' W 122°15'0 0.0
2015-Apr-17 11:33N 38°03' W 122°15'0 0.0
2015-Apr-17 10:33N 38°03' W 122°15'0 0.0
2015-Apr-17 09:33N 38°03' W 122°15'0 0.0
2015-Apr-17 08:33N 38°03' W 122°15'0 0.0
2015-Apr-17 07:33N 38°03' W 122°15'0 0.0
2015-Apr-17 06:33N 38°03' W 122°15'0 0.0
2015-Apr-17 05:33N 38°03' W 122°15'0 0.0
2015-Apr-17 04:33N 38°03' W 122°15'0 0.0
2015-Apr-17 03:33N 38°03' W 122°15'8 7.4
2015-Apr-17 02:32N 38°01' W 122°24'9 8.9
2015-Apr-17 01:33N 37°52' W 122°24'7 7.0
2015-Apr-17 00:33N 37°48' W 122°17'2 1.7
2015-Apr-16 23:33N 37°48' W 122°19'2 1.5
2015-Apr-16 22:33N 37°49' W 122°19'0 0.0
2015-Apr-16 21:33N 37°49' W 122°19'0 0.0
2015-Apr-16 20:33N 37°49' W 122°19'0 0.0
2015-Apr-16 19:33N 37°49' W 122°19'0 0.0
2015-Apr-16 18:34N 37°49' W 122°19'2 2.4
2015-Apr-16 17:33N 37°49' W 122°22'2 2.4
2015-Apr-16 16:33N 37°49' W 122°19'0 0.0
2015-Apr-16 15:33N 37°49' W 122°19'0 0.0
2015-Apr-16 14:33N 37°49' W 122°19'0 0.0
2015-Apr-16 13:33N 37°49' W 122°19'5 4.6
2015-Apr-16 12:33N 37°45' W 122°21'6 6.1
2015-Apr-16 11:33N 37°49' W 122°27'3 3.0
2015-Apr-16 10:33N 37°49' W 122°31'1 0.9
2015-Apr-16 09:33N 37°49' W 122°30'9 8.6
2015-Apr-16 08:33N 37°49' W 122°19'0 0.2
2015-Apr-16 07:33N 37°49' W 122°19'0 0.0
2015-Apr-16 06:33N 37°49' W 122°19'0 0.0
2015-Apr-16 05:34N 37°49' W 122°19'0 0.0
2015-Apr-16 04:33N 37°49' W 122°19'1 1.5
2015-Apr-16 03:33N 37°49' W 122°20'8 7.8
2015-Apr-16 02:33N 37°55' W 122°25'0 0.1
2015-Apr-16 01:33N 37°55' W 122°25'0 0.2
2015-Apr-16 00:33N 37°55' W 122°25'5 5.3
2015-Apr-15 23:33N 37°51' W 122°23'3 3.3
2015-Apr-15 22:33N 37°49' W 122°19'0 0.0
2015-Apr-15 21:34N 37°49' W 122°19'0 0.0
2015-Apr-15 20:33N 37°49' W 122°19'0 0.0
2015-Apr-15 19:33N 37°49' W 122°19'0 0.0
2015-Apr-15 18:33N 37°49' W 122°19'0 0.0
2015-Apr-15 17:33N 37°49' W 122°19'1 0.6
2015-Apr-15 16:33N 37°49' W 122°19'0 0.1
2015-Apr-15 15:33N 37°49' W 122°19'0 0.3
2015-Apr-15 14:33N 37°49' W 122°20'0 0.1
2015-Apr-15 13:33N 37°49' W 122°20'3 3.5
2015-Apr-15 12:34N 37°48' W 122°24'0 0.0
2015-Apr-15 11:33N 37°48' W 122°24'0 0.0
2015-Apr-15 10:33N 37°48' W 122°24'3 3.0
2015-Apr-15 09:34N 37°51' W 122°25'4 4.4
2015-Apr-15 08:33N 37°56' W 122°25'0 0.1
2015-Apr-15 07:33N 37°56' W 122°25'3 3.1
2015-Apr-15 06:33N 37°53' W 122°25'4 4.1
2015-Apr-15 05:33N 37°57' W 122°26'8 8.2
2015-Apr-15 04:32N 38°03' W 122°19'2 2.5
2015-Apr-15 03:33N 38°03' W 122°16'7 7.0
2015-Apr-15 02:31N 38°00' W 122°24'1010.4
2015-Apr-15 01:33N 37°50' W 122°26'4 4.4
2015-Apr-15 00:33N 37°49' W 122°31'6 6.0
2015-Apr-14 23:33N 37°49' W 122°23'4 3.5
2015-Apr-14 22:34N 37°46' W 122°21'4 3.6
2015-Apr-14 21:34N 37°49' W 122°19'0 0.0
2015-Apr-14 20:33N 37°49' W 122°19'0 0.0
2015-Apr-14 19:33N 37°49' W 122°19'0 0.0
2015-Apr-14 18:33N 37°49' W 122°19'0 0.0
2015-Apr-14 17:33N 37°49' W 122°19'0 0.0
2015-Apr-14 16:33N 37°49' W 122°19'0 0.0
2015-Apr-14 15:33N 37°49' W 122°19'4 4.1
2015-Apr-14 14:33N 37°51' W 122°23'5 4.6
2015-Apr-14 13:33N 37°55' W 122°25'2 2.4
2015-Apr-14 12:33N 37°55' W 122°22'0 0.5
2015-Apr-14 11:34N 37°54' W 122°22'3 2.7
2015-Apr-14 10:33N 37°55' W 122°25'0 0.2
2015-Apr-14 09:33N 37°55' W 122°25'8 7.7
2015-Apr-14 08:34N 37°49' W 122°20'0 0.3
2015-Apr-14 07:33N 37°49' W 122°20'0 0.0
2015-Apr-14 06:33N 37°49' W 122°20'3 2.9
2015-Apr-14 05:33N 37°46' W 122°21'4 4.1
2015-Apr-14 04:33N 37°49' W 122°25'4 4.4
2015-Apr-14 03:33N 37°49' W 122°30'8 8.1
2015-Apr-14 02:33N 37°49' W 122°20'1 1.2
2015-Apr-14 01:33N 37°49' W 122°19'0 0.0
2015-Apr-14 00:33N 37°49' W 122°19'0 0.0
2015-Apr-13 23:33N 37°49' W 122°19'0 0.0
2015-Apr-13 22:33N 37°49' W 122°19'0 0.0
2015-Apr-13 21:33N 37°49' W 122°19'0 0.0
2015-Apr-13 20:33N 37°49' W 122°19'0 0.0
2015-Apr-13 19:33N 37°49' W 122°19'0 0.0
2015-Apr-13 18:33N 37°49' W 122°19'0 0.0
2015-Apr-13 17:33N 37°49' W 122°19'0 0.0
2015-Apr-13 16:33N 37°49' W 122°19'0 0.0
2015-Apr-13 15:33N 37°49' W 122°19'0 0.0
2015-Apr-13 14:33N 37°49' W 122°19'0 0.0
2015-Apr-13 13:33N 37°49' W 122°19'0 0.0
2015-Apr-13 12:33N 37°49' W 122°19'0 0.0
2015-Apr-13 11:33N 37°49' W 122°19'0 0.0
2015-Apr-13 10:33N 37°49' W 122°19'0 0.0
2015-Apr-13 09:33N 37°49' W 122°19'0 0.0
2015-Apr-13 08:33N 37°49' W 122°19'0 0.0
2015-Apr-13 07:32N 37°49' W 122°19'0 0.0
2015-Apr-13 06:33N 37°49' W 122°19'0 0.0
2015-Apr-13 05:33N 37°49' W 122°19'0 0.0
2015-Apr-13 04:33N 37°49' W 122°19'4 3.9
2015-Apr-13 03:33N 37°49' W 122°24'6 5.9
2015-Apr-13 02:33N 37°49' W 122°31'6 6.2
2015-Apr-13 01:34N 37°53' W 122°26'9 8.6
2015-Apr-13 00:34N 38°02' W 122°23'7 6.7
2015-Apr-12 23:33N 38°04' W 122°15'0 0.1
2015-Apr-12 21:27N 38°03' W 122°15'0 0.0
2015-Apr-12 17:33N 38°03' W 122°15'0 0.0
2015-Apr-12 16:33N 38°03' W 122°15'5 0.3
2015-Apr-12 00:18N 38°02' W 122°09'5 0.7
2015-Apr-11 17:24N 38°03' W 122°15'0 0.0
2015-Apr-11 16:17N 38°03' W 122°15'0 0.2
2015-Apr-11 15:33N 38°04' W 122°15'7 5.8
2015-Apr-11 14:24N 38°02' W 122°23'8 9.0
2015-Apr-11 13:33N 37°55' W 122°27'9 9.1
2015-Apr-11 12:33N 37°47' W 122°21'3 3.1
2015-Apr-11 11:33N 37°49' W 122°19'0 0.0
2015-Apr-11 10:33N 37°49' W 122°19'0 0.0
2015-Apr-11 09:33N 37°49' W 122°19'0 0.0
2015-Apr-11 08:33N 37°49' W 122°19'0 0.0
2015-Apr-11 07:33N 37°49' W 122°19'0 0.0
2015-Apr-11 06:33N 37°49' W 122°19'0 0.0
2015-Apr-11 05:33N 37°49' W 122°19'0 0.0
2015-Apr-11 04:33N 37°49' W 122°19'0 0.0
2015-Apr-11 03:33N 37°49' W 122°19'0 0.0
2015-Apr-11 02:33N 37°49' W 122°19'0 0.0
2015-Apr-11 01:33N 37°49' W 122°19'0 0.1
2015-Apr-11 00:34N 37°49' W 122°19'0 0.3
2015-Apr-10 23:33N 37°49' W 122°19'8 7.9
2015-Apr-10 22:33N 37°55' W 122°25'0 0.5
2015-Apr-10 21:33N 37°55' W 122°25'8 7.7
2015-Apr-10 20:33N 37°49' W 122°19'1 0.6
2015-Apr-10 19:33N 37°49' W 122°19'0 0.0
2015-Apr-10 18:33N 37°49' W 122°19'0 0.0
2015-Apr-10 17:33N 37°49' W 122°19'0 0.0
2015-Apr-10 16:33N 37°49' W 122°19'0 0.0
2015-Apr-10 15:33N 37°49' W 122°19'1 0.6
2015-Apr-10 14:33N 37°49' W 122°19'8 7.8
2015-Apr-10 13:33N 37°55' W 122°25'0 0.2
2015-Apr-10 12:33N 37°55' W 122°25'1 0.6
2015-Apr-10 11:33N 37°56' W 122°25'0 0.0
2015-Apr-10 10:33N 37°56' W 122°25'0 0.0
2015-Apr-10 09:33N 37°56' W 122°25'0 0.0
2015-Apr-10 08:33N 37°56' W 122°25'3 2.5
2015-Apr-10 07:33N 37°58' W 122°26'9 9.5
2015-Apr-10 06:33N 38°03' W 122°16'7 6.6
2015-Apr-10 05:33N 38°02' W 122°08'0 0.2
2015-Apr-10 04:32N 38°02' W 122°08'8 7.7
2015-Apr-10 03:32N 38°03' W 122°18'9 9.3
2015-Apr-10 02:33N 37°58' W 122°27'9 9.5
2015-Apr-10 01:33N 37°49' W 122°23'3 2.6
2015-Apr-10 00:33N 37°47' W 122°21'3 3.0
2015-Apr-09 23:33N 37°49' W 122°19'0 0.0
2015-Apr-09 22:33N 37°49' W 122°19'0 0.0
2015-Apr-09 21:33N 37°49' W 122°19'0 0.0
2015-Apr-09 20:33N 37°49' W 122°19'0 0.0
2015-Apr-09 19:33N 37°49' W 122°19'0 0.0
2015-Apr-09 18:33N 37°49' W 122°19'0 0.0
2015-Apr-09 17:33N 37°49' W 122°19'2 2.2
2015-Apr-09 16:33N 37°49' W 122°21'2 2.2
2015-Apr-09 15:33N 37°49' W 122°19'0 0.0
2015-Apr-09 14:33N 37°49' W 122°19'0 0.0
2015-Apr-09 13:33N 37°49' W 122°19'0 0.0
2015-Apr-09 12:33N 37°49' W 122°19'0 0.0
2015-Apr-09 11:33N 37°49' W 122°19'0 0.0
2015-Apr-09 10:33N 37°49' W 122°19'0 0.0
2015-Apr-09 09:34N 37°49' W 122°19'2 1.6
2015-Apr-09 08:33N 37°48' W 122°18'  

Dump ship's entire track history